Time;durP1;ratioP1;P1;durP2;ratioP2;P2;SDS_P1;SDS_P2;PMS_P1;PMS_P2;Temp;Humidity;BMP_temperature;BMP_pressure;BME280_temperature;BME280_humidity;BME280_pressure;Samples;Min_cycle;Max_cycle;Signal;HPM_P1;HPM_P2
2021/04/28 00:02:02;;;;;;;10.85;6.05;;;8.90;60.90;;;8.79;50.54;99601.31;4991315;28;20213;-77
2021/04/28 00:04:28;;;;;;;12.25;6.18;;;8.90;60.60;;;8.80;51.04;99594.03;4991334;28;20051;-77
2021/04/28 00:06:56;;;;;;;10.27;6.07;;;8.90;60.90;;;8.77;51.17;99591.69;4991476;28;20188;-77
2021/04/28 00:09:22;;;;;;;9.93;5.60;;;8.90;61.00;;;8.72;51.54;99588.72;4991900;28;20042;-77
2021/04/28 00:11:49;;;;;;;11.63;5.13;;;9.00;61.60;;;8.70;51.87;99590.78;4991863;28;20042;-77
2021/04/28 00:14:16;;;;;;;10.32;5.75;;;8.80;62.10;;;8.69;52.30;99581.00;4989683;28;20092;-77
2021/04/28 00:16:44;;;;;;;9.82;5.68;;;8.80;62.20;;;8.63;51.79;99584.50;4991115;28;20074;-77
2021/04/28 00:19:11;;;;;;;11.02;5.70;;;8.70;62.60;;;8.57;52.18;99577.97;4991204;28;20050;-77
2021/04/28 00:21:37;;;;;;;10.18;5.93;;;8.70;62.30;;;8.59;52.05;99573.19;4991668;28;20128;-77
2021/04/28 00:24:05;;;;;;;12.25;6.10;;;8.70;62.10;;;8.52;52.70;99575.84;4989556;28;20119;-77
2021/04/28 00:26:32;;;;;;;11.35;5.82;;;8.70;62.70;;;8.52;52.34;99577.72;4989685;28;20065;-77
2021/04/28 00:28:59;;;;;;;11.77;5.97;;;8.60;62.80;;;8.51;52.24;99573.31;4991255;28;20070;-77
2021/04/28 00:31:26;;;;;;;11.88;6.38;;;8.50;63.20;;;8.48;52.63;99577.25;4991176;28;20054;-77
2021/04/28 00:33:53;;;;;;;14.60;6.15;;;8.60;62.90;;;8.48;52.76;99571.00;4990898;28;20043;-77
2021/04/28 00:36:20;;;;;;;10.63;6.10;;;8.50;63.40;;;8.48;52.67;99571.00;4991143;28;20088;-77
2021/04/28 00:38:47;;;;;;;11.98;6.00;;;8.50;63.50;;;8.50;52.30;99575.19;4991283;28;20070;-77
2021/04/28 00:41:13;;;;;;;14.82;6.45;;;8.60;63.40;;;8.50;52.92;99575.19;4989927;28;20049;-77
2021/04/28 00:43:40;;;;;;;9.52;5.93;;;8.50;63.70;;;8.49;52.50;99565.41;4989353;28;20116;-77
2021/04/28 00:46:07;;;;;;;10.55;6.13;;;8.50;63.50;;;8.49;51.93;99564.53;4990896;28;20594;-77
2021/04/28 00:48:35;;;;;;;10.23;6.03;;;8.60;63.40;;;8.51;51.85;99565.19;4991360;28;20049;-77
2021/04/28 00:51:04;;;;;;;11.43;6.38;;;8.50;63.00;;;8.47;52.72;99559.28;5005996;28;20877;-77
2021/04/28 00:53:31;;;;;;;12.38;6.03;;;8.50;63.10;;;8.44;52.92;99559.69;4989155;28;20729;-77
2021/04/28 00:56:01;;;;;;;13.48;6.60;;;8.50;64.10;;;8.43;53.60;99552.59;4989246;28;20420;-77
2021/04/28 00:58:28;;;;;;;12.07;6.55;;;8.50;64.20;;;8.40;53.56;99555.69;4991184;28;20507;-77
2021/04/28 01:00:58;;;;;;;10.50;6.22;;;8.50;64.40;;;8.38;53.33;99560.47;4989239;28;20074;-77
2021/04/28 01:03:27;;;;;;;13.43;6.47;;;8.50;64.40;;;8.37;52.85;99551.47;4990499;28;20098;-77
2021/04/28 01:06:03;;;;;;;10.05;6.13;;;8.50;64.10;;;8.35;53.43;99550.00;4989107;28;20100;-77
2021/04/28 01:08:31;;;;;;;12.50;6.57;;;8.50;64.30;;;8.33;53.43;99549.34;4990973;28;20065;-77
2021/04/28 01:10:58;;;;;;;17.33;6.60;;;8.40;64.30;;;8.28;53.97;99546.38;4989340;28;20100;-77
2021/04/28 01:13:26;;;;;;;12.82;7.15;;;8.40;65.00;;;8.29;53.77;99551.59;4988799;28;20038;-77
2021/04/28 01:15:55;;;;;;;13.80;6.03;;;8.40;64.90;;;8.28;53.68;99559.91;4988885;28;20061;-77
2021/04/28 01:18:23;;;;;;;11.65;6.53;;;8.30;64.90;;;8.29;53.37;99551.59;4989073;28;20047;-77
2021/04/28 01:20:51;;;;;;;13.05;6.57;;;8.40;64.20;;;8.28;53.25;99546.38;4989165;28;20435;-77
2021/04/28 01:23:20;;;;;;;12.98;6.13;;;8.40;64.10;;;8.28;52.80;99546.38;4989635;28;20045;-77
2021/04/28 01:25:50;;;;;;;11.73;6.63;;;8.40;63.90;;;8.30;52.63;99547.00;4988880;28;20100;-77
2021/04/28 01:28:21;;;;;;;11.07;6.57;;;8.40;63.60;;;8.27;53.11;99542.00;4988552;28;20054;-77
2021/04/28 01:31:02;;;;;;;10.70;6.35;;;8.30;63.80;;;8.19;53.68;99541.09;4989299;28;20124;-77
2021/04/28 01:33:34;;;;;;;9.90;6.05;;;8.30;64.60;;;8.14;53.48;99543.53;4988147;28;20054;-77
2021/04/28 01:36:04;;;;;;;10.73;6.63;;;8.20;65.10;;;8.08;54.56;99543.47;4988347;28;20079;-77
2021/04/28 01:38:39;;;;;;;15.45;7.25;;;8.20;65.60;;;8.03;54.41;99535.91;4988826;28;20609;-77
2021/04/28 01:41:06;;;;;;;10.07;6.40;;;8.10;65.90;;;7.98;54.74;99543.78;4988911;28;20096;-77
2021/04/28 01:43:40;;;;;;;10.43;6.40;;;8.10;66.00;;;7.93;54.23;99540.81;4988010;28;20096;-77
2021/04/28 01:46:08;;;;;;;14.00;6.75;;;8.10;65.90;;;7.90;53.97;99535.75;5004487;28;20062;-77
2021/04/28 01:48:37;;;;;;;16.10;6.85;;;8.00;65.60;;;7.87;53.84;99542.41;4988741;28;20062;-77
2021/04/28 01:51:06;;;;;;;12.48;6.38;;;8.00;65.50;;;7.86;54.28;99539.88;4988334;28;20137;-77
2021/04/28 01:53:34;;;;;;;11.32;6.40;;;7.90;65.80;;;7.83;54.75;99530.28;4987937;28;20053;-77
2021/04/28 01:56:01;;;;;;;10.82;6.10;;;7.90;66.00;;;7.81;54.93;99538.59;4988208;28;20070;-77
2021/04/28 01:58:44;;;;;;;11.57;6.70;;;7.90;66.40;;;7.79;54.72;99537.13;4989706;28;20154;-77
2021/04/28 02:01:21;;;;;;;12.02;6.45;;;7.80;66.90;;;7.74;55.46;99543.09;4988602;28;20535;-77
2021/04/28 02:03:49;;;;;;;12.38;6.57;;;8.00;67.50;;;7.68;55.30;99537.59;4988905;28;20073;-77
2021/04/28 02:06:16;;;;;;;15.63;6.70;;;7.70;67.40;;;7.66;54.91;99535.09;4989166;28;20048;-77
2021/04/28 02:08:45;;;;;;;13.95;6.82;;;7.70;67.50;;;7.65;54.86;99533.38;4988075;28;20050;-77
2021/04/28 02:11:13;;;;;;;11.50;6.38;;;7.70;67.40;;;7.63;55.75;99532.75;4988191;28;20056;-77
2021/04/28 02:13:45;;;;;;;9.55;6.22;;;7.60;67.50;;;7.59;55.75;99529.56;4988795;28;20046;-77
2021/04/28 02:16:29;;;;;;;16.05;6.90;;;7.60;67.80;;;7.61;55.58;99532.09;4987938;28;20515;-77
2021/04/28 02:18:59;;;;;;;10.05;6.25;;;7.60;67.80;;;7.56;54.88;99529.97;4989376;28;20049;-77
2021/04/28 02:21:27;;;;;;;10.88;6.32;;;7.50;67.80;;;7.52;55.26;99527.81;4987933;28;20117;-77
2021/04/28 02:24:18;;;;;;;13.35;6.38;;;7.50;67.70;;;7.49;55.75;99529.03;5003699;28;20503;-77
2021/04/28 02:26:46;;;;;;;16.38;7.03;;;7.50;67.80;;;7.49;55.01;99529.03;4988944;28;20077;-77
2021/04/28 02:29:14;;;;;;;13.40;6.43;;;7.50;67.90;;;7.46;55.77;99525.88;4989483;28;20047;-77
2021/04/28 02:31:43;;;;;;;14.68;6.85;;;7.40;68.10;;;7.43;56.45;99529.81;4987967;28;20061;-77
2021/04/28 02:34:14;;;;;;;12.75;6.63;;;7.40;68.30;;;7.39;56.21;99525.81;4989040;28;20042;-77
2021/04/28 02:37:04;;;;;;;10.70;6.97;;;7.40;68.70;;;7.33;57.04;99529.22;4989829;28;20086;-77
2021/04/28 02:40:09;;;;;;;11.75;7.22;;;7.40;68.70;;;7.30;56.57;99529.63;4977206;28;20054;-77
2021/04/28 02:42:36;;;;;;;11.70;7.15;;;7.30;69.10;;;7.28;56.58;99532.50;4987404;28;20077;-77
2021/04/28 02:45:06;;;;;;;13.52;7.35;;;7.30;68.90;;;7.25;56.62;99519.34;4987210;28;20053;-77
2021/04/28 02:47:35;;;;;;;15.23;7.40;;;7.30;69.10;;;7.20;56.95;99525.34;4989335;28;20839;-77
2021/04/28 02:50:05;;;;;;;13.73;7.10;;;7.20;69.30;;;7.17;56.81;99519.47;4987718;28;20557;-77
2021/04/28 02:52:49;;;;;;;12.02;7.15;;;7.20;69.50;;;7.16;56.68;99517.75;4988765;28;20081;-77
2021/04/28 02:55:19;;;;;;;12.35;7.07;;;7.10;69.60;;;7.15;57.26;99516.09;4987121;28;20068;-77
2021/04/28 02:57:47;;;;;;;10.93;7.10;;;7.10;69.90;;;7.07;57.22;99510.78;4988896;28;20451;-77
2021/04/28 03:00:19;;;;;;;13.23;6.93;;;7.10;70.00;;;7.04;57.12;99518.25;4987528;28;20109;-77
2021/04/28 03:02:48;;;;;;;11.88;7.32;;;7.10;69.60;;;7.05;56.77;99510.97;4986682;28;20096;-77
2021/04/28 03:05:17;;;;;;;12.30;7.30;;;7.10;69.60;;;7.05;56.70;99511.81;4988496;28;20042;-77
2021/04/28 03:08:10;;;;;;;11.68;7.22;;;7.00;69.50;;;7.07;57.51;99510.78;4987629;28;20590;-77
2021/04/28 03:10:40;;;;;;;10.80;7.30;;;7.00;70.10;;;7.03;57.50;99513.88;4988728;28;20072;-77
2021/04/28 03:13:07;;;;;;;13.05;7.35;;;7.00;70.30;;;6.97;57.46;99513.78;4986665;28;20050;-77
2021/04/28 03:15:36;;;;;;;12.88;7.45;;;6.90;70.60;;;6.96;57.42;99512.91;4987037;28;20431;-77
2021/04/28 03:18:06;;;;;;;11.25;6.85;;;6.90;70.80;;;6.92;57.75;99519.72;4987071;28;20043;-77
2021/04/28 03:20:36;;;;;;;14.40;8.00;;;6.90;70.90;;;6.90;57.66;99513.66;4987408;28;20399;-77
2021/04/28 03:23:06;;;;;;;12.00;6.97;;;6.80;70.90;;;6.83;57.97;99508.19;4986765;28;20133;-77
2021/04/28 03:25:33;;;;;;;12.23;7.50;;;6.80;71.00;;;6.80;57.67;99510.41;4986901;28;20050;-77
2021/04/28 03:28:05;;;;;;;12.48;7.15;;;6.80;71.40;;;6.79;58.08;99506.00;4987199;28;20054;-77
2021/04/28 03:30:32;;;;;;;14.30;6.68;;;6.90;71.40;;;6.78;57.88;99512.47;4988705;28;20506;-77
2021/04/28 03:32:59;;;;;;;13.63;7.40;;;6.90;71.50;;;6.77;58.03;99508.91;4988113;28;20058;-77
2021/04/28 03:35:45;;;;;;;12.05;7.28;;;6.90;71.50;;;6.76;57.89;99514.47;4988249;28;20077;-77
2021/04/28 03:38:32;;;;;;;10.55;6.63;;;6.70;71.30;;;6.76;57.83;99512.63;4986828;28;20054;-77
2021/04/28 03:41:00;;;;;;;12.32;6.72;;;6.70;71.10;;;6.72;57.67;99515.88;4988809;28;20076;-77
2021/04/28 03:43:29;;;;;;;12.77;7.22;;;6.70;71.20;;;6.65;58.01;99516.63;4988211;28;20117;-77
2021/04/28 03:45:56;;;;;;;10.05;6.50;;;6.70;71.30;;;6.64;57.97;99508.69;4977459;28;20094;-77
2021/04/28 03:48:35;;;;;;;12.73;7.10;;;6.60;71.10;;;6.62;58.33;99516.16;4966611;28;20523;-77
2021/04/28 03:51:03;;;;;;;11.80;7.40;;;6.60;71.50;;;6.58;58.43;99515.66;4966883;28;20585;-77
2021/04/28 03:53:30;;;;;;;14.23;6.97;;;6.60;71.60;;;6.55;58.51;99515.19;4967906;28;20043;-77
2021/04/28 03:55:59;;;;;;;13.13;6.68;;;6.60;71.70;;;6.55;58.84;99516.06;4970465;28;20043;-77
2021/04/28 03:58:26;;;;;;;17.50;8.18;;;6.50;71.80;;;6.54;58.76;99508.13;4971118;28;20133;-77
2021/04/28 04:01:03;;;;;;;11.10;6.50;;;6.50;72.40;;;6.49;59.10;99514.06;4983077;28;20046;-77
2021/04/28 04:03:34;;;;;;;10.95;6.82;;;6.40;72.40;;;6.45;59.12;99510.91;4989960;28;20591;-77
2021/04/28 04:06:20;;;;;;;15.95;6.75;;;6.40;72.30;;;6.41;59.53;99514.16;4991126;28;20072;-77
2021/04/28 04:09:07;;;;;;;12.02;6.88;;;6.40;72.40;;;6.36;59.47;99521.94;4990359;28;20073;-77
2021/04/28 04:11:35;;;;;;;12.27;6.60;;;6.40;72.20;;;6.40;58.76;99517.88;4990514;28;20054;-77
2021/04/28 04:14:03;;;;;;;14.48;6.97;;;6.40;71.90;;;6.41;59.01;99519.56;4989890;28;20043;-77
2021/04/28 04:16:32;;;;;;;11.18;6.28;;;6.40;72.00;;;6.42;59.36;99521.25;4989885;28;20061;-78
2021/04/28 04:18:59;;;;;;;14.55;7.07;;;6.40;72.10;;;6.43;59.65;99522.91;4992157;28;20503;-77
2021/04/28 04:21:26;;;;;;;15.88;6.95;;;6.40;72.10;;;6.37;59.70;99518.22;4990754;28;20077;-77
2021/04/28 04:24:29;;;;;;;12.75;7.00;;;6.40;72.30;;;6.38;59.76;99514.53;4969094;28;20082;-77
2021/04/28 04:27:06;;;;;;;14.05;7.50;;;6.40;72.40;;;6.39;60.16;99521.59;4984929;28;20581;-77
2021/04/28 04:29:57;;;;;;;12.90;6.97;;;6.40;72.40;;;6.39;60.11;99516.19;4990262;28;20539;-77
2021/04/28 04:32:31;;;;;;;12.60;7.40;;;6.40;72.60;;;6.37;59.81;99515.53;4991615;28;20051;-77
2021/04/28 04:35:16;;;;;;;13.75;6.63;;;6.40;72.60;;;6.41;60.47;99508.75;4991039;28;20065;-77
2021/04/28 04:38:01;;;;;;;15.40;7.07;;;6.50;72.80;;;6.42;60.22;99516.66;4992254;28;20057;-77
2021/04/28 04:40:41;;;;;;;12.60;6.63;;;6.50;72.80;;;6.41;60.36;99514.16;4992037;28;20054;-77
2021/04/28 04:43:27;;;;;;;11.85;7.00;;;6.50;72.90;;;6.44;60.05;99513.78;4991696;28;20046;-77
2021/04/28 04:46:04;;;;;;;12.95;7.00;;;6.60;72.70;;;6.52;60.20;99516.41;4990593;28;20124;-77
2021/04/28 04:48:32;;;;;;;16.10;8.15;;;6.60;72.60;;;6.50;61.01;99521.16;4991979;28;20046;-77
2021/04/28 04:50:59;;;;;;;17.85;7.60;;;6.60;72.80;;;6.47;60.88;99513.41;4991773;28;20566;-77
2021/04/28 04:53:26;;;;;;;18.77;7.15;;;6.60;73.40;;;6.48;61.49;99519.69;4991054;28;20134;-77
2021/04/28 04:55:53;;;;;;;13.55;7.35;;;6.60;73.30;;;6.51;61.19;99519.28;4991310;28;20450;-77
2021/04/28 04:58:19;;;;;;;14.80;7.50;;;6.60;73.60;;;6.51;61.57;99527.41;4991694;28;20070;-77
2021/04/28 05:00:47;;;;;;;13.38;7.93;;;6.60;73.90;;;6.50;62.18;99523.88;4991650;28;20066;-77
2021/04/28 05:03:14;;;;;;;12.25;7.13;;;6.60;74.00;;;6.49;62.00;99511.34;4991020;28;20038;-77
2021/04/28 05:05:41;;;;;;;16.00;8.48;;;6.70;74.10;;;6.60;60.95;99513.63;4989712;28;20069;-77
2021/04/28 05:08:08;;;;;;;18.27;8.23;;;6.70;73.50;;;6.68;61.58;99507.28;4989329;28;20137;-77
2021/04/28 05:10:35;;;;;;;12.70;7.55;;;6.80;73.40;;;6.66;61.34;99506.63;4989795;28;20078;-77
2021/04/28 05:13:01;;;;;;;16.23;8.48;;;6.80;73.90;;;6.68;61.15;99504.59;4990466;28;20046;-77
2021/04/28 05:15:28;;;;;;;20.92;8.73;;;6.90;73.50;;;6.84;60.10;99511.72;4990712;28;20155;-77
2021/04/28 05:17:57;;;;;;;21.42;8.15;;;6.90;72.60;;;6.84;60.44;99514.41;4990448;28;20503;-77
2021/04/28 05:20:25;;;;;;;21.08;8.60;;;6.90;72.40;;;6.83;60.53;99512.72;4990681;28;20050;-77
2021/04/28 05:22:52;;;;;;;23.30;8.48;;;6.90;72.80;;;6.81;60.87;99515.59;4990192;28;20058;-77
2021/04/28 05:25:38;;;;;;;16.65;8.30;;;7.00;72.90;;;6.88;59.73;99514.88;4989451;28;20050;-77
2021/04/28 05:28:05;;;;;;;16.95;8.27;;;7.00;71.80;;;6.93;59.55;99513.31;4990439;28;20228;-77
2021/04/28 05:30:32;;;;;;;28.42;9.55;;;7.10;71.50;;;7.00;59.50;99508.81;4990539;28;20046;-77
2021/04/28 05:32:59;;;;;;;24.35;9.18;;;7.20;71.30;;;7.04;60.42;99504.72;4990701;28;20066;-78
2021/04/28 05:35:26;;;;;;;17.70;8.70;;;7.30;72.40;;;7.18;60.29;99504.91;4990865;28;20046;-78
2021/04/28 05:37:54;;;;;;;20.20;9.32;;;7.30;72.20;;;7.17;60.29;99505.94;4991350;28;20541;-79
2021/04/28 05:40:21;;;;;;;16.63;8.95;;;7.40;72.40;;;7.16;61.02;99505.09;4991263;28;20053;-77
2021/04/28 05:42:48;;;;;;;19.67;10.10;;;7.40;73.00;;;7.25;60.63;99508.53;4990744;28;20053;-78
2021/04/28 05:45:16;;;;;;;18.10;9.13;;;7.40;72.50;;;7.28;60.15;99513.56;4990484;28;20131;-78
2021/04/28 05:47:44;;;;;;;15.70;8.23;;;7.50;72.70;;;7.39;60.18;99504.97;4990601;28;20108;-78
2021/04/28 05:50:14;;;;;;;18.38;8.77;;;7.60;72.30;;;7.52;59.12;99507.00;4990968;28;20408;-78
2021/04/28 05:52:41;;;;;;;17.23;8.85;;;7.70;72.00;;;7.60;59.67;99508.78;4986151;28;20054;-78
2021/04/28 05:55:12;;;;;;;15.65;8.80;;;7.80;71.80;;;7.69;59.50;99507.63;4987962;28;20070;-78
2021/04/28 05:57:40;;;;;;;17.20;9.32;;;7.90;71.70;;;7.75;58.63;99500.59;4991047;28;20057;-78
2021/04/28 06:00:10;;;;;;;22.80;9.75;;;8.00;71.10;;;7.88;58.10;99508.03;4991277;28;20078;-78
2021/04/28 06:02:39;;;;;;;18.80;9.32;;;8.10;70.40;;;7.90;58.66;99503.25;4990241;28;20050;-78
2021/04/28 06:05:08;;;;;;;16.77;9.32;;;8.20;70.00;;;7.94;58.16;99501.84;4990105;28;20081;-78
2021/04/28 06:07:35;;;;;;;18.58;9.43;;;8.30;69.70;;;8.01;57.90;99498.19;4991970;28;20574;-78
2021/04/28 06:10:02;;;;;;;21.92;10.55;;;8.40;69.20;;;8.05;58.19;99487.78;4991353;28;20046;-78
2021/04/28 06:12:29;;;;;;;18.38;9.57;;;8.50;69.30;;;8.10;57.48;99495.34;4991240;28;20069;-78
2021/04/28 06:14:56;;;;;;;18.92;10.38;;;8.60;69.10;;;8.17;57.51;99494.38;4991087;28;20053;-78
2021/04/28 06:17:23;;;;;;;18.27;9.35;;;8.70;68.30;;;8.25;57.20;99489.84;4991057;28;20126;-78
2021/04/28 06:19:50;;;;;;;24.10;9.57;;;8.70;67.60;;;8.34;56.09;99488.66;4991490;28;20069;-78
2021/04/28 06:22:16;;;;;;;20.98;9.85;;;8.80;67.00;;;8.33;55.63;99476.97;4991266;28;20057;-78
2021/04/28 06:24:43;;;;;;;18.83;9.75;;;8.90;65.80;;;8.44;55.68;99485.66;4990688;28;20050;-78
2021/04/28 06:27:10;;;;;;;22.33;10.30;;;9.00;65.40;;;8.48;56.09;99484.25;4991425;28;20073;-78
2021/04/28 06:29:38;;;;;;;18.40;9.63;;;9.10;65.40;;;8.56;55.42;99481.38;4991708;28;20553;-78
2021/04/28 06:32:05;;;;;;;22.77;9.73;;;9.20;64.80;;;8.61;55.56;99479.75;4991958;28;20061;-78
2021/04/28 06:34:33;;;;;;;18.23;9.82;;;9.30;65.20;;;8.69;56.17;99484.19;4991594;28;20042;-78
2021/04/28 06:37:00;;;;;;;19.90;9.55;;;9.50;65.30;;;8.77;55.00;99483.19;4991684;28;20077;-78
2021/04/28 06:39:27;;;;;;;17.83;9.45;;;9.70;64.70;;;8.85;55.35;99482.19;4991689;28;20761;-78
2021/04/28 06:41:53;;;;;;;16.38;9.65;;;9.70;64.40;;;8.89;55.23;99481.63;4991886;28;20234;-78
2021/04/28 06:44:20;;;;;;;19.75;9.27;;;9.80;63.90;;;8.96;54.86;99471.63;4991413;28;20101;-78
2021/04/28 06:46:48;;;;;;;24.50;10.10;;;9.90;63.20;;;9.05;54.52;99475.03;4991163;28;20046;-78
2021/04/28 06:49:15;;;;;;;18.25;10.88;;;10.00;62.80;;;9.13;54.87;99472.13;4992009;28;20052;-79
2021/04/28 06:51:42;;;;;;;19.70;10.55;;;10.10;63.00;;;9.16;54.21;99471.72;4988492;28;20117;-77
2021/04/28 06:54:09;;;;;;;21.35;10.23;;;10.20;62.60;;;9.26;54.22;99471.34;4990779;28;20062;-78
2021/04/28 06:56:35;;;;;;;21.40;10.15;;;10.30;62.20;;;9.32;54.21;99469.72;4990591;28;20055;-78
2021/04/28 06:59:02;;;;;;;21.85;9.70;;;10.50;61.70;;;9.41;54.33;99481.25;4991987;28;20050;-78
2021/04/28 07:01:29;;;;;;;19.55;10.43;;;10.60;61.40;;;9.51;54.07;99473.56;4991144;28;20046;-78
2021/04/28 07:03:57;;;;;;;15.95;10.20;;;10.90;60.50;;;9.61;55.16;99467.72;4992959;28;20133;-79
2021/04/28 07:06:24;;;;;;;18.52;10.40;;;11.10;61.00;;;9.70;54.73;99464.63;4992906;28;20061;-78
2021/04/28 07:08:50;;;;;;;19.00;10.27;;;11.30;60.90;;;9.78;54.18;99458.16;4993029;28;20053;-78
2021/04/28 07:11:17;;;;;;;22.98;10.15;;;11.40;58.50;;;9.86;53.69;99459.84;4979154;28;20109;-79
2021/04/28 07:13:44;;;;;;;19.48;9.27;;;11.60;59.10;;;9.95;53.79;99462.16;4977447;28;20072;-78
2021/04/28 07:16:11;;;;;;;19.33;10.55;;;11.70;58.60;;;10.09;54.95;99470.34;4992744;28;20049;-79
2021/04/28 07:18:37;;;;;;;20.27;10.07;;;11.80;59.30;;;10.22;54.69;99459.47;4993776;28;20242;-79
2021/04/28 07:21:05;;;;;;;21.50;10.50;;;11.90;59.00;;;10.30;55.80;99461.16;4993011;28;20058;-79
2021/04/28 07:23:32;;;;;;;24.63;10.07;;;12.00;59.60;;;10.42;55.41;99456.81;4994666;28;20073;-79
2021/04/28 07:25:59;;;;;;;19.58;9.27;;;12.20;59.80;;;10.49;54.10;99465.81;4993215;28;20061;-80
2021/04/28 07:28:26;;;;;;;20.13;10.60;;;12.30;58.20;;;10.59;54.93;99454.50;4993436;28;20082;-78
2021/04/28 07:30:53;;;;;;;20.42;10.27;;;12.40;59.10;;;10.69;54.41;99454.88;4980940;28;20569;-80
2021/04/28 07:33:19;;;;;;;21.15;9.50;;;12.50;57.60;;;10.80;54.12;99466.19;4993878;28;20062;-78
2021/04/28 07:35:46;;;;;;;20.92;9.13;;;12.60;57.20;;;10.86;52.59;99449.84;4994871;28;20042;-80
2021/04/28 07:38:14;;;;;;;21.58;10.23;;;12.70;55.90;;;10.92;52.53;99454.41;4977789;28;20047;-80
2021/04/28 07:40:41;;;;;;;15.63;9.60;;;12.80;55.30;;;10.94;52.07;99444.16;4977126;28;20134;-79
2021/04/28 07:43:08;;;;;;;22.17;10.00;;;12.90;54.60;;;11.04;53.43;99454.63;4989711;28;20046;-79
2021/04/28 07:45:35;;;;;;;16.30;9.90;;;13.00;56.00;;;11.10;52.40;99444.72;4995246;28;20085;-79
2021/04/28 07:48:07;;;;;;;21.67;10.63;;;13.00;54.90;;;11.11;52.53;99438.25;4994781;28;20057;-79
2021/04/28 07:50:34;;;;;;;17.23;9.77;;;13.10;55.00;;;11.15;52.34;99442.22;4994217;28;20049;-79
2021/04/28 07:53:01;;;;;;;20.45;10.35;;;13.10;54.60;;;11.26;52.21;99444.25;4993252;28;20081;-79
2021/04/28 07:55:29;;;;;;;21.42;10.77;;;13.10;54.60;;;11.40;52.20;99434.13;4992130;28;20058;-79
2021/04/28 07:57:57;;;;;;;21.67;10.23;;;13.20;54.60;;;11.54;53.84;99440.38;4995608;28;20056;-79
2021/04/28 08:00:26;;;;;;;20.10;10.15;;;13.30;56.50;;;11.69;53.70;99440.91;4993715;28;20050;-79
2021/04/28 08:02:56;;;;;;;21.88;9.52;;;13.50;56.70;;;11.67;51.84;99434.84;4996459;28;20042;-79
2021/04/28 08:05:24;;;;;;;16.95;9.18;;;13.60;54.20;;;11.81;52.14;99434.78;4995522;28;20418;-79
2021/04/28 08:07:52;;;;;;;19.73;9.65;;;13.70;54.20;;;11.86;52.14;99432.22;4996576;28;20050;-80
2021/04/28 08:10:19;;;;;;;21.90;10.10;;;13.80;54.10;;;11.88;50.89;99419.19;4995369;28;20043;-79
2021/04/28 08:12:47;;;;;;;20.60;10.52;;;13.80;54.60;;;11.87;50.67;99429.25;4997647;28;20325;-79
2021/04/28 08:15:15;;;;;;;18.50;9.85;;;13.80;53.60;;;11.84;49.03;99428.88;4995832;28;20451;-79
2021/04/28 08:17:42;;;;;;;22.25;9.88;;;13.80;52.60;;;11.88;50.08;99432.81;4996299;28;20065;-79
2021/04/28 08:20:12;;;;;;;18.52;9.52;;;13.80;53.20;;;11.93;50.09;99424.84;4998389;28;20037;-78
2021/04/28 08:22:39;;;;;;;22.23;10.25;;;13.80;53.50;;;11.99;50.02;99437.59;4993329;28;20074;-79
2021/04/28 08:25:10;;;;;;;16.60;9.10;;;13.80;53.40;;;12.07;49.82;99428.31;5001001;28;20050;-79
2021/04/28 08:27:37;;;;;;;19.52;9.77;;;13.80;53.50;;;12.08;48.39;99424.53;5015683;28;20042;-79
2021/04/28 08:30:07;;;;;;;19.75;10.10;;;13.90;51.90;;;12.08;47.75;99419.91;5016060;28;20049;-79
2021/04/28 08:32:34;;;;;;;17.97;9.60;;;13.90;51.10;;;12.19;49.55;99417.56;5013970;28;20038;-79
2021/04/28 08:35:01;;;;;;;20.17;9.77;;;13.90;52.70;;;12.30;48.17;99422.28;5014977;28;20296;-79
2021/04/28 08:37:28;;;;;;;18.17;9.23;;;14.00;52.00;;;12.34;49.04;99418.03;5014720;28;20069;-79
2021/04/28 08:39:55;;;;;;;18.75;9.45;;;14.00;52.20;;;12.35;47.76;99414.25;5014304;28;20053;-79
2021/04/28 08:42:22;;;;;;;19.08;9.68;;;14.00;51.40;;;12.36;46.95;99409.66;5000838;28;20054;-79
2021/04/28 08:44:49;;;;;;;21.30;10.02;;;14.00;50.60;;;12.50;49.25;99412.00;5010369;28;20049;-79
2021/04/28 08:47:18;;;;;;;20.92;9.52;;;14.10;52.70;;;12.51;46.77;99407.41;5016984;28;20073;-79
2021/04/28 08:49:44;;;;;;;18.23;9.05;;;14.20;50.70;;;12.45;45.17;99406.41;4997836;28;20047;-79
2021/04/28 08:52:15;;;;;;;26.25;9.68;;;14.20;49.60;;;12.60;45.70;99402.47;4996848;28;20050;-79
2021/04/28 08:54:42;;;;;;;19.55;9.52;;;14.20;49.90;;;12.62;44.90;99403.06;4996299;28;20101;-80
2021/04/28 08:57:10;;;;;;;18.67;9.43;;;14.30;48.80;;;12.72;44.92;99408.88;4998212;28;20102;-79
2021/04/28 08:59:37;;;;;;;20.13;9.40;;;14.30;48.50;;;12.77;44.08;99402.72;5006994;28;20102;-80
2021/04/28 09:02:22;;;;;;;19.85;9.05;;;14.40;47.60;;;12.85;46.32;99394.22;5012294;28;20046;-79
2021/04/28 09:05:11;;;;;;;15.52;8.68;;;14.40;49.40;;;12.95;46.38;99401.91;5000661;28;20053;-79
2021/04/28 09:07:39;;;;;;;19.80;8.60;;;14.50;49.70;;;13.01;43.04;99401.00;4998597;28;20125;-79
2021/04/28 09:10:09;;;;;;;16.65;8.38;;;14.60;46.80;;;13.01;44.15;99401.81;4997265;28;20042;-79
2021/04/28 09:12:37;;;;;;;13.75;8.20;;;14.70;47.00;;;13.07;42.81;99398.16;4997123;28;20065;-79
2021/04/28 09:15:06;;;;;;;18.13;8.68;;;14.70;46.30;;;13.06;40.49;99390.19;4996826;28;20403;-79
2021/04/28 09:17:50;;;;;;;14.35;7.90;;;14.80;44.70;;;13.02;40.30;99391.72;4997227;28;20065;-79
2021/04/28 09:20:39;;;;;;;15.55;8.95;;;14.80;44.10;;;13.05;40.99;99388.53;4996756;28;20549;-79
2021/04/28 09:23:15;;;;;;;18.60;8.25;;;14.80;45.80;;;13.15;43.16;99396.19;4995819;28;20042;-79
2021/04/28 09:26:00;;;;;;;17.63;8.73;;;14.90;48.20;;;13.30;42.79;99388.47;4994425;28;20460;-78
2021/04/28 09:29:06;;;;;;;16.15;8.90;;;14.90;45.20;;;13.19;41.49;99375.53;4971231;28;20054;-79
2021/04/28 09:31:34;;;;;;;13.45;8.27;;;14.90;43.20;;;13.25;41.33;99380.94;4972641;28;20542;-79
2021/04/28 09:34:02;;;;;;;14.05;8.55;;;15.00;44.30;;;13.27;40.40;99367.88;4983276;28;20833;-79
2021/04/28 09:36:33;;;;;;;15.27;8.57;;;14.90;42.80;;;13.26;40.35;99370.84;4996897;28;20057;-79
2021/04/28 09:39:05;;;;;;;15.90;8.93;;;14.90;42.90;;;13.29;39.13;99365.75;4995232;28;20042;-79
2021/04/28 09:41:36;;;;;;;14.55;8.18;;;15.00;42.10;;;13.40;40.08;99355.13;4993971;28;20093;-79
2021/04/28 09:44:19;;;;;;;15.00;8.45;;;15.00;42.90;;;13.48;41.02;99354.81;4990151;28;20499;-79
2021/04/28 09:47:06;;;;;;;13.63;7.75;;;15.10;43.80;;;13.44;39.22;99359.03;4991376;28;20530;-79
2021/04/28 09:50:01;;;;;;;13.88;7.93;;;15.10;42.10;;;13.46;38.59;99343.25;4995068;28;20557;-79
2021/04/28 09:52:41;;;;;;;15.18;7.72;;;15.20;42.10;;;13.51;39.57;99340.66;4993464;28;20562;-79
2021/04/28 09:55:11;;;;;;;16.45;7.43;;;15.20;44.90;;;13.64;39.93;99345.94;4988466;28;20069;-79
2021/04/28 09:57:41;;;;;;;14.90;7.38;;;15.30;45.10;;;13.61;38.99;99346.41;4991907;28;20054;-79
2021/04/28 10:00:18;;;;;;;13.70;7.45;;;15.30;44.20;;;13.66;37.92;99345.69;4991389;28;20077;-79
2021/04/28 10:02:56;;;;;;;16.35;8.30;;;15.30;43.40;;;13.69;40.70;99337.88;4991491;28;20138;-79
2021/04/28 10:05:27;;;;;;;15.18;7.65;;;15.30;44.90;;;13.75;39.45;99335.28;4991193;28;20104;-79
2021/04/28 10:08:09;;;;;;;14.23;8.00;;;15.40;44.60;;;13.76;37.68;99335.00;4993840;28;20777;-79
2021/04/28 10:10:36;;;;;;;11.88;7.22;;;15.50;42.70;;;13.73;38.16;99331.91;4994558;28;20050;-79
2021/04/28 10:13:05;;;;;;;10.23;5.90;;;15.50;43.20;;;13.79;40.01;99326.34;4993888;28;20098;-79
2021/04/28 10:15:32;;;;;;;13.48;7.43;;;15.50;44.60;;;13.80;39.19;99321.72;4993247;28;20070;-79
2021/04/28 10:18:04;;;;;;;16.80;7.60;;;15.50;44.00;;;13.82;37.95;99325.03;4994161;28;20065;-79
2021/04/28 10:20:35;;;;;;;14.63;7.93;;;15.50;43.00;;;13.87;37.28;99319.72;4993537;28;20511;-79
2021/04/28 10:23:04;;;;;;;16.90;7.38;;;15.60;42.60;;;13.94;37.80;99317.69;4992955;28;20074;-79
2021/04/28 10:25:32;;;;;;;18.35;9.20;;;15.60;42.40;;;13.85;37.05;99316.38;4993544;28;20050;-79
2021/04/28 10:28:00;;;;;;;14.00;8.05;;;15.60;41.30;;;13.85;37.50;99319.09;4994176;28;20046;-79
2021/04/28 10:30:28;;;;;;;15.13;8.27;;;15.60;41.40;;;13.92;36.84;99306.16;4993136;28;20097;-79
2021/04/28 10:32:57;;;;;;;13.88;7.40;;;15.60;41.70;;;14.07;37.64;99306.53;4993624;28;20053;-79
2021/04/28 10:35:29;;;;;;;15.85;7.53;;;15.70;42.40;;;14.04;36.54;99296.03;4993631;28;20046;-79